Time;durP1;ratioP1;P1;durP2;ratioP2;P2;SDS_P1;SDS_P2;PMS_P1;PMS_P2;Temp;Humidity;BMP_temperature;BMP_pressure;BME280_temperature;BME280_humidity;BME280_pressure;Samples;Min_cycle;Max_cycle;Signal;HPM_P1;HPM_P2
2021/06/30 00:01:04;;;;;;;2.92;2.10;;;;;;;16.65;72.44;98077.22;5068576;28;20512;-59
2021/06/30 00:03:41;;;;;;;3.15;2.10;;;;;;;16.58;72.93;98078.47;5068729;27;20139;-59
2021/06/30 00:06:30;;;;;;;4.70;2.63;;;;;;;16.52;72.83;98079.69;5068220;28;20914;-59
2021/06/30 00:09:07;;;;;;;5.88;2.70;;;;;;;16.45;73.03;98074.00;5068668;28;20394;-59
2021/06/30 00:11:44;;;;;;;3.60;2.17;;;;;;;16.37;73.41;98082.78;5068320;28;20608;-58
2021/06/30 00:14:23;;;;;;;2.92;2.35;;;;;;;16.43;73.17;98080.75;5109028;27;20735;-58
2021/06/30 00:17:00;;;;;;;3.65;2.50;;;;;;;16.45;73.43;98083.94;5068693;28;20406;-60
2021/06/30 00:19:37;;;;;;;3.50;2.42;;;;;;;16.46;73.29;98088.97;5109040;27;20135;-60
2021/06/30 00:22:15;;;;;;;4.50;2.70;;;;;;;16.49;72.92;98093.69;5068799;27;20390;-58
2021/06/30 00:24:51;;;;;;;4.47;2.50;;;;;;;16.50;73.03;98091.78;5068349;28;20150;-59
2021/06/30 00:27:28;;;;;;;4.55;2.45;;;;;;;16.47;73.16;98103.94;5068747;27;20548;-59
2021/06/30 00:30:06;;;;;;;5.13;2.33;;;;;;;16.39;73.24;98090.50;5088729;27;20136;-59
2021/06/30 00:32:43;;;;;;;6.65;3.13;;;;;;;16.34;73.25;98078.81;5068613;27;20395;-58
2021/06/30 00:35:20;;;;;;;3.78;2.45;;;;;;;16.41;73.36;98088.28;5069386;27;20456;-59
2021/06/30 00:37:56;;;;;;;4.35;2.00;;;;;;;16.39;73.35;98088.63;5068554;28;20161;-59
2021/06/30 00:40:33;;;;;;;3.20;2.45;;;;;;;16.40;73.47;98081.38;5068690;28;20130;-58
2021/06/30 00:43:09;;;;;;;3.30;2.70;;;;;;;16.42;73.19;98093.34;5088829;27;20140;-59
2021/06/30 00:45:48;;;;;;;5.15;2.70;;;;;;;16.41;73.30;98089.09;5088866;27;20137;-59
2021/06/30 00:48:26;;;;;;;3.92;2.83;;;;;;;16.45;73.24;98089.28;5068515;27;20409;-58
2021/06/30 00:51:02;;;;;;;6.72;3.15;;;;;;;16.38;73.30;98103.06;5067803;28;20162;-60
2021/06/30 00:53:38;;;;;;;5.15;3.00;;;;;;;16.42;73.54;98095.25;5105698;27;1333871;-58
2021/06/30 00:56:14;;;;;;;5.07;3.03;;;;;;;16.39;73.52;98096.63;5068441;27;20130;-60
2021/06/30 00:58:52;;;;;;;3.53;2.53;;;;;;;16.35;73.84;98098.31;5068692;27;20142;-57
2021/06/30 01:01:29;;;;;;;4.15;2.85;;;;;;;16.36;73.72;98105.28;5068126;27;20387;-59
2021/06/30 01:04:06;;;;;;;8.20;2.97;;;;;;;16.24;74.01;98095.16;5109308;27;20538;-59
2021/06/30 01:06:44;;;;;;;5.28;3.25;;;;;;;16.37;73.74;98100.72;5126534;27;20784;-58
2021/06/30 01:09:20;;;;;;;3.03;2.58;;;;;;;16.42;73.41;98095.25;5068693;28;20141;-58
2021/06/30 01:11:58;;;;;;;8.18;3.10;;;;;;;16.42;73.28;98101.38;5068823;28;20139;-59
2021/06/30 01:14:36;;;;;;;6.07;2.80;;;;;;;16.38;73.49;98094.25;5068927;28;20399;-59
2021/06/30 01:17:13;;;;;;;4.82;2.80;;;;;;;16.35;73.76;98098.31;5068224;28;20395;-59
2021/06/30 01:19:50;;;;;;;4.65;2.70;;;;;;;16.26;74.06;98092.94;5068668;28;20157;-59
2021/06/30 01:22:27;;;;;;;3.85;2.60;;;;;;;16.30;74.01;98098.47;5068343;28;20138;-60
2021/06/30 01:25:04;;;;;;;5.13;2.80;;;;;;;16.32;73.80;98099.75;5068582;27;20162;-58
2021/06/30 01:27:41;;;;;;;6.05;2.65;;;;;;;16.33;73.77;98095.19;5068653;28;20406;-57
2021/06/30 01:30:18;;;;;;;5.80;2.75;;;;;;;16.26;74.12;98092.94;5068583;28;20126;-59
2021/06/30 01:32:55;;;;;;;6.25;2.83;;;;;;;16.23;74.14;98093.53;5068659;28;20142;-59
2021/06/30 01:35:31;;;;;;;4.47;3.03;;;;;;;16.25;74.25;98087.91;5068234;28;20634;-58
2021/06/30 01:38:08;;;;;;;3.40;2.60;;;;;;;16.33;73.94;98095.19;5109039;27;20307;-58
2021/06/30 01:40:44;;;;;;;5.35;3.03;;;;;;;16.37;73.63;98098.81;5068283;28;20142;-58
2021/06/30 01:43:22;;;;;;;3.53;2.90;;;;;;;16.39;73.76;98091.28;5068690;27;20543;-57
2021/06/30 01:45:59;;;;;;;2.80;2.60;;;;;;;16.43;73.63;98099.50;5088643;27;20802;-59
2021/06/30 01:48:36;;;;;;;3.45;2.80;;;;;;;16.45;73.48;98097.31;5088978;28;20144;-59
2021/06/30 01:51:12;;;;;;;3.63;2.78;;;;;;;16.46;73.42;98094.31;5109246;27;20144;-59
2021/06/30 01:53:53;;;;;;;5.95;2.90;;;;;;;16.54;73.15;98092.78;5068675;28;20157;-58
2021/06/30 01:56:30;;;;;;;4.50;2.45;;;;;;;16.62;72.98;98086.69;5068548;28;20390;-58
2021/06/30 01:59:12;;;;;;;3.70;2.70;;;;;;;16.61;73.01;98092.34;5068748;27;20386;-59
2021/06/30 02:01:50;;;;;;;3.63;3.03;;;;;;;16.63;72.90;98090.16;5068253;28;20406;-59
2021/06/30 02:04:27;;;;;;;6.85;2.70;;;;;;;16.63;73.03;98082.91;5068643;28;20658;-59
2021/06/30 02:07:03;;;;;;;4.20;3.05;;;;;;;16.65;72.70;98090.59;5068607;27;20141;-58
2021/06/30 02:09:40;;;;;;;3.92;3.15;;;;;;;16.70;72.54;98085.91;5068558;28;20134;-59
2021/06/30 02:12:17;;;;;;;5.03;3.05;;;;;;;16.76;72.77;98087.38;5068183;28;20142;-58
2021/06/30 02:14:53;;;;;;;3.95;3.05;;;;;;;16.82;72.32;98076.53;5068842;28;20146;-58
2021/06/30 02:17:30;;;;;;;4.65;3.00;;;;;;;16.80;72.09;98074.19;5068280;27;20137;-59
2021/06/30 02:20:09;;;;;;;4.15;2.95;;;;;;;16.70;72.53;98069.84;5088414;27;20157;-59
2021/06/30 02:22:47;;;;;;;3.95;3.00;;;;;;;16.71;72.56;98081.38;5068579;28;20923;-59
2021/06/30 02:25:27;;;;;;;4.55;2.90;;;;;;;16.77;72.13;98074.81;5068320;27;20402;-58
2021/06/30 02:28:04;;;;;;;3.42;2.90;;;;;;;16.78;71.94;98073.69;5068638;28;20398;-59
2021/06/30 02:30:41;;;;;;;4.93;3.22;;;;;;;16.79;72.08;98076.09;5068200;27;20134;-60
2021/06/30 02:33:19;;;;;;;5.50;3.20;;;;;;;16.83;72.12;98081.59;5068647;28;20402;-59
2021/06/30 02:35:56;;;;;;;3.10;2.80;;;;;;;16.85;72.11;98082.06;5068553;28;20543;-59
2021/06/30 02:38:32;;;;;;;3.58;2.85;;;;;;;16.82;72.02;98081.91;5068594;27;20135;-59
2021/06/30 02:41:09;;;;;;;4.90;3.30;;;;;;;16.86;71.82;98085.53;5068632;28;20134;-58
2021/06/30 02:43:46;;;;;;;4.15;3.38;;;;;;;16.96;71.59;98091.38;5068574;27;20134;-58
2021/06/30 02:46:24;;;;;;;4.05;2.90;;;;;;;16.95;71.49;98083.69;5068284;28;20804;-59
2021/06/30 02:49:00;;;;;;;3.90;3.20;;;;;;;16.94;71.61;98085.56;5068659;28;20130;-60
2021/06/30 02:51:37;;;;;;;6.18;3.40;;;;;;;16.93;71.43;98083.97;5105365;27;20602;-58
2021/06/30 02:54:13;;;;;;;4.65;3.45;;;;;;;16.95;71.36;98086.34;5068578;28;20141;-59
2021/06/30 02:56:50;;;;;;;3.95;3.03;;;;;;;17.02;71.09;98075.97;5068348;27;20134;-58
2021/06/30 02:59:27;;;;;;;4.80;3.20;;;;;;;17.06;70.98;98071.59;5068569;28;20655;-57
2021/06/30 03:02:03;;;;;;;5.97;3.70;;;;;;;17.20;70.74;98077.56;5068419;27;20134;-59
2021/06/30 03:04:40;;;;;;;4.32;3.20;;;;;;;17.24;70.80;98069.72;5068436;28;20141;-60
2021/06/30 03:07:17;;;;;;;4.57;2.70;;;;;;;17.40;70.34;98076.19;5068533;27;20130;-60
2021/06/30 03:09:53;;;;;;;4.28;3.08;;;;;;;17.78;68.91;98074.81;5068713;28;20135;-59
2021/06/30 03:12:30;;;;;;;4.13;3.20;;;;;;;18.00;68.01;98071.16;5068696;28;20139;-59
2021/06/30 03:15:08;;;;;;;3.40;3.10;;;;;;;18.15;67.38;98074.13;5068219;27;20131;-59
2021/06/30 03:17:46;;;;;;;5.95;3.30;;;;;;;18.13;67.08;98075.56;5068528;27;20394;-59
2021/06/30 03:20:23;;;;;;;5.07;3.00;;;;;;;18.85;65.11;98084.63;5115446;27;20143;-59
2021/06/30 03:22:59;;;;;;;3.53;2.78;;;;;;;19.53;63.16;98079.19;5068488;28;20137;-59
2021/06/30 03:25:36;;;;;;;3.03;2.53;;;;;;;19.67;62.08;98074.34;5068521;27;20596;-58
2021/06/30 03:28:13;;;;;;;6.10;3.00;;;;;;;19.40;62.55;98064.88;5068575;28;20131;-59
2021/06/30 03:30:49;;;;;;;3.92;3.13;;;;;;;19.38;62.61;98059.03;5088306;27;20145;-59
2021/06/30 03:33:26;;;;;;;3.50;3.10;;;;;;;19.68;61.76;98053.66;5068558;27;20627;-59
2021/06/30 03:36:04;;;;;;;3.03;2.72;;;;;;;20.00;61.15;98057.47;5068566;28;20134;-59
2021/06/30 03:38:41;;;;;;;4.15;2.88;;;;;;;20.08;60.24;98055.78;5068662;28;20383;-59
2021/06/30 03:41:17;;;;;;;3.35;2.80;;;;;;;20.42;59.11;98054.63;5088228;27;20137;-58
2021/06/30 03:43:54;;;;;;;5.38;2.70;;;;;;;20.43;58.99;98053.50;5089414;28;20152;-59
2021/06/30 03:46:30;;;;;;;5.50;3.05;;;;;;;20.47;58.86;98051.72;5068264;27;20139;-58
2021/06/30 03:49:07;;;;;;;4.70;2.88;;;;;;;20.65;58.48;98057.72;5068576;27;20601;-58
2021/06/30 03:51:43;;;;;;;3.70;2.90;;;;;;;21.09;56.71;98056.00;5087240;27;1345289;-60
2021/06/30 03:54:24;;;;;;;4.03;2.92;;;;;;;21.77;55.22;98055.28;5068937;28;20395;-59
2021/06/30 03:57:02;;;;;;;4.45;2.78;;;;;;;21.77;54.93;98055.28;5068617;28;20383;-59
2021/06/30 03:59:38;;;;;;;4.00;2.88;;;;;;;21.29;56.18;98064.25;5068681;27;20133;-59
2021/06/30 04:02:15;;;;;;;4.57;2.50;;;;;;;20.77;57.85;98059.63;5068560;28;20139;-58
2021/06/30 04:04:52;;;;;;;4.40;2.63;;;;;;;20.48;58.44;98065.97;5109133;27;20134;-59
2021/06/30 04:07:28;;;;;;;5.65;2.75;;;;;;;20.25;59.04;98060.97;5096715;28;20157;-59
2021/06/30 04:10:05;;;;;;;3.65;2.80;;;;;;;20.27;59.32;98066.03;5068507;27;20134;-59
2021/06/30 04:12:43;;;;;;;3.92;2.30;;;;;;;20.34;59.18;98077.81;5068569;28;20387;-61
2021/06/30 04:15:19;;;;;;;4.32;2.55;;;;;;;20.27;59.46;98077.59;5068116;28;20157;-57
2021/06/30 04:18:00;;;;;;;3.13;2.53;;;;;;;20.12;59.96;98075.53;5068606;28;20141;-58
2021/06/30 04:20:38;;;;;;;3.28;2.47;;;;;;;20.15;59.77;98074.88;5068533;27;20387;-59
2021/06/30 04:23:14;;;;;;;3.65;2.75;;;;;;;20.07;59.95;98079.22;5068536;28;20399;-60
2021/06/30 04:25:51;;;;;;;4.45;2.63;;;;;;;19.87;60.94;98080.03;5109203;27;20132;-59
2021/06/30 04:28:28;;;;;;;4.55;3.00;;;;;;;19.72;60.92;98082.22;5109162;27;20538;-58
2021/06/30 04:31:06;;;;;;;3.30;2.80;;;;;;;19.76;61.23;98074.28;5067930;27;20804;-58
2021/06/30 04:33:42;;;;;;;7.20;2.78;;;;;;;19.68;61.42;98084.00;5068550;28;20138;-63
2021/06/30 04:36:19;;;;;;;2.97;2.78;;;;;;;19.42;62.26;98088.75;5068225;27;20142;-63
2021/06/30 04:38:55;;;;;;;3.60;2.55;;;;;;;19.38;62.35;98085.91;5109205;27;20537;-58
2021/06/30 04:41:32;;;;;;;6.55;2.95;;;;;;;19.20;62.69;98089.84;5068142;28;20135;-57
2021/06/30 04:44:09;;;;;;;3.97;2.70;;;;;;;19.17;63.04;98093.16;5068521;28;20135;-57
2021/06/30 04:46:45;;;;;;;3.67;2.90;;;;;;;19.01;63.72;98095.63;5088529;27;20133;-58
2021/06/30 04:49:22;;;;;;;3.38;2.70;;;;;;;19.03;63.23;98096.09;5068604;28;20137;-57
2021/06/30 04:51:58;;;;;;;6.13;2.72;;;;;;;19.11;63.25;98097.16;5068454;28;20127;-59
2021/06/30 04:54:35;;;;;;;2.50;2.30;;;;;;;19.20;63.18;98090.63;5068709;28;20138;-59
2021/06/30 04:57:12;;;;;;;2.92;2.35;;;;;;;19.18;62.83;98092.84;5068577;28;20141;-59
2021/06/30 04:59:48;;;;;;;2.70;2.45;;;;;;;19.37;62.24;98081.66;5068494;28;20141;-59
2021/06/30 05:02:25;;;;;;;3.92;2.60;;;;;;;19.65;61.57;98079.28;5068597;28;20140;-58
2021/06/30 05:05:02;;;;;;;4.10;2.60;;;;;;;19.97;60.94;98076.91;5068651;28;20135;-58
2021/06/30 05:07:40;;;;;;;3.20;2.60;;;;;;;20.24;60.26;98085.56;5068534;28;20539;-58
2021/06/30 05:10:16;;;;;;;5.28;2.60;;;;;;;20.67;58.58;98082.38;5068601;28;20138;-58
2021/06/30 05:12:53;;;;;;;4.38;2.47;;;;;;;21.08;57.68;98081.34;5068478;28;20139;-59
2021/06/30 05:15:30;;;;;;;4.22;2.30;;;;;;;21.26;56.94;98070.34;5108965;27;20135;-59
2021/06/30 05:18:06;;;;;;;3.08;2.78;;;;;;;21.25;56.64;98074.16;5068379;28;20141;-59
2021/06/30 05:20:43;;;;;;;5.68;2.50;;;;;;;21.39;56.88;98074.63;5068521;27;20139;-58
2021/06/30 05:23:19;;;;;;;3.00;2.47;;;;;;;21.65;55.88;98079.59;5068522;28;20130;-59
2021/06/30 05:25:56;;;;;;;3.13;2.50;;;;;;;21.77;55.50;98076.09;5068394;28;20134;-59
2021/06/30 05:28:33;;;;;;;3.83;2.55;;;;;;;21.93;55.75;98079.59;5068315;28;20138;-59
2021/06/30 05:31:09;;;;;;;4.43;2.60;;;;;;;22.09;54.59;98078.84;5068413;28;20157;-60
2021/06/30 05:33:46;;;;;;;4.13;2.25;;;;;;;22.18;54.51;98074.91;5068570;28;20138;-60
2021/06/30 05:36:22;;;;;;;5.22;2.58;;;;;;;22.19;54.39;98084.56;5108967;27;20606;-59
2021/06/30 05:38:59;;;;;;;12.43;3.10;;;;;;;22.06;54.88;98076.84;5068527;27;20130;-58
2021/06/30 05:41:36;;;;;;;4.00;2.53;;;;;;;21.92;55.08;98083.44;5133594;27;20136;-59
2021/06/30 05:44:13;;;;;;;4.97;2.92;;;;;;;21.75;55.27;98089.13;5068605;28;20658;-59
2021/06/30 05:46:50;;;;;;;2.63;2.17;;;;;;;21.47;55.88;98075.59;5005616;27;20407;-60
2021/06/30 05:49:27;;;;;;;2.58;2.35;;;;;;;21.12;56.20;98084.19;5068640;27;20130;-60
2021/06/30 05:52:04;;;;;;;3.80;2.22;;;;;;;21.09;56.54;98095.66;5109081;27;20140;-60
2021/06/30 05:54:42;;;;;;;5.07;2.60;;;;;;;20.95;57.46;98092.50;5068733;27;20391;-59
2021/06/30 05:57:18;;;;;;;2.88;2.60;;;;;;;21.09;56.99;98087.56;5069110;27;20131;-59
2021/06/30 05:59:55;;;;;;;2.85;2.65;;;;;;;21.19;56.49;98086.31;5109206;27;20137;-60
2021/06/30 06:02:32;;;;;;;2.88;2.45;;;;;;;21.57;55.81;98087.84;5109057;27;20590;-60
2021/06/30 06:05:09;;;;;;;4.03;2.40;;;;;;;21.50;55.24;98089.19;5068433;27;20138;-60
2021/06/30 06:07:46;;;;;;;4.53;2.47;;;;;;;21.45;55.30;98085.97;5068522;27;20383;-58
2021/06/30 06:10:23;;;;;;;5.50;2.60;;;;;;;21.41;55.89;98085.06;5068671;28;20559;-56
2021/06/30 06:13:02;;;;;;;3.13;2.60;;;;;;;21.26;55.63;98078.41;5045046;27;20404;-59
2021/06/30 06:15:38;;;;;;;4.65;2.40;;;;;;;21.34;55.19;98064.03;5100787;27;20137;-59
2021/06/30 06:18:15;;;;;;;11.13;2.75;;;;;;;21.54;54.81;98073.13;5109209;27;20140;-59
2021/06/30 06:20:51;;;;;;;3.05;2.40;;;;;;;21.68;53.98;98073.53;5088705;27;20140;-58
2021/06/30 06:23:28;;;;;;;3.28;2.60;;;;;;;22.00;53.92;98073.59;5068363;28;20134;-59
2021/06/30 06:26:03;;;;;;;4.55;2.42;;;;;;;22.30;52.77;98070.59;5092690;27;1346186;-60
2021/06/30 06:28:41;;;;;;;3.67;2.20;;;;;;;22.08;53.22;98085.38;5088621;27;20404;-60
2021/06/30 06:31:19;;;;;;;3.72;2.40;;;;;;;21.74;54.33;98074.84;5068389;28;20138;-59
2021/06/30 06:33:56;;;;;;;2.88;2.60;;;;;;;21.68;54.47;98072.75;5109172;27;20400;-60
2021/06/30 06:36:34;;;;;;;3.38;2.70;;;;;;;21.72;55.29;98074.41;5068501;28;20130;-57
2021/06/30 06:39:13;;;;;;;3.90;2.22;;;;;;;21.91;53.92;98060.28;5069020;28;20406;-59
2021/06/30 06:41:49;;;;;;;4.25;2.22;;;;;;;22.16;53.37;98062.84;5068452;28;20130;-60
2021/06/30 06:44:25;;;;;;;3.38;2.28;;;;;;;22.36;52.31;98059.16;5068455;27;20131;-60
2021/06/30 06:47:02;;;;;;;3.00;2.20;;;;;;;22.37;53.00;98062.66;5068342;27;20138;-61
2021/06/30 06:49:39;;;;;;;5.32;2.60;;;;;;;22.63;52.30;98062.91;5068482;27;20142;-60
2021/06/30 06:52:15;;;;;;;2.35;2.15;;;;;;;22.57;51.71;98072.41;5068180;28;20600;-59
2021/06/30 06:54:52;;;;;;;2.65;2.15;;;;;;;22.64;52.66;98067.16;5068359;28;20145;-59
2021/06/30 06:57:28;;;;;;;4.25;2.35;;;;;;;22.81;51.81;98073.38;5088664;27;20145;-59
2021/06/30 07:00:06;;;;;;;5.13;2.45;;;;;;;23.02;51.51;98079.28;5063915;27;20130;-59
2021/06/30 07:02:43;;;;;;;5.55;2.55;;;;;;;23.13;50.87;98074.13;5066822;28;20410;-60
2021/06/30 07:05:20;;;;;;;3.10;2.20;;;;;;;22.97;51.33;98079.56;5127531;27;20139;-59
2021/06/30 07:07:56;;;;;;;5.53;2.42;;;;;;;22.65;51.81;98074.16;5065875;27;20548;-60
2021/06/30 07:10:34;;;;;;;3.45;2.50;;;;;;;22.78;51.78;98077.53;5065914;28;20138;-59
2021/06/30 07:13:12;;;;;;;3.72;2.40;;;;;;;23.04;51.25;98074.31;5066148;28;20402;-61
2021/06/30 07:15:50;;;;;;;3.45;2.45;;;;;;;23.05;50.55;98070.47;5065253;28;20441;-59
2021/06/30 07:18:26;;;;;;;3.25;2.15;;;;;;;22.99;50.59;98065.69;5065804;28;20414;-59
2021/06/30 07:21:04;;;;;;;5.05;2.03;;;;;;;22.87;50.44;98067.34;5086046;27;20138;-59
2021/06/30 07:23:41;;;;;;;4.82;2.47;;;;;;;22.83;50.33;98073.81;5063968;28;20402;-60
2021/06/30 07:26:18;;;;;;;4.38;2.30;;;;;;;22.45;51.19;98057.06;5104666;27;20140;-59
2021/06/30 07:28:55;;;;;;;4.55;2.40;;;;;;;22.42;51.71;98068.56;5104143;27;20155;-60
2021/06/30 07:31:31;;;;;;;4.80;2.45;;;;;;;22.44;51.12;98073.63;5064216;28;20139;-61
2021/06/30 07:34:07;;;;;;;8.38;2.72;;;;;;;22.43;51.37;98070.13;5065267;28;20145;-59
2021/06/30 07:36:44;;;;;;;5.43;2.67;;;;;;;22.48;50.89;98069.09;5085171;27;20136;-60
2021/06/30 07:39:23;;;;;;;5.05;2.20;;;;;;;22.61;50.76;98065.16;5063084;28;20135;-59
2021/06/30 07:42:01;;;;;;;6.90;2.53;;;;;;;22.71;50.10;98079.28;5103572;27;20809;-58
2021/06/30 07:44:39;;;;;;;4.63;2.35;;;;;;;22.64;50.02;98064.47;5064255;27;20804;-60
2021/06/30 07:47:16;;;;;;;4.28;2.60;;;;;;;22.38;49.99;98077.69;5103895;27;20175;-61
2021/06/30 07:49:52;;;;;;;5.65;2.63;;;;;;;22.20;50.75;98078.03;5066538;28;20138;-60
2021/06/30 07:52:28;;;;;;;5.60;2.60;;;;;;;22.18;51.40;98084.94;5087286;27;20141;-60
2021/06/30 07:55:05;;;;;;;5.03;2.78;;;;;;;22.29;51.60;98074.38;5066095;28;20213;-59
2021/06/30 07:57:43;;;;;;;2.90;2.50;;;;;;;22.20;51.37;98078.03;5067024;28;20138;-58
2021/06/30 08:00:20;;;;;;;4.28;3.00;;;;;;;22.05;51.41;98075.28;5087036;27;20772;-59
2021/06/30 08:02:56;;;;;;;4.93;2.70;;;;;;;22.02;52.19;98081.38;5065434;27;20130;-59
2021/06/30 08:05:33;;;;;;;2.90;2.58;;;;;;;22.05;51.95;98083.38;5066541;28;20142;-59
2021/06/30 08:08:10;;;;;;;4.35;2.63;;;;;;;22.17;51.36;98084.13;5066308;28;20609;-58
2021/06/30 08:10:46;;;;;;;3.13;2.65;;;;;;;22.18;51.84;98087.63;5066916;27;20134;-59
2021/06/30 08:13:23;;;;;;;3.55;2.50;;;;;;;22.14;52.02;98084.00;5067474;28;20137;-57
2021/06/30 08:16:00;;;;;;;3.05;2.47;;;;;;;22.29;51.56;98088.66;5107947;27;20522;-58
2021/06/30 08:18:36;;;;;;;3.08;2.78;;;;;;;22.32;51.76;98092.59;5066346;27;20146;-58
2021/06/30 08:21:14;;;;;;;4.13;2.55;;;;;;;22.33;51.19;98086.84;5068016;28;20619;-58
2021/06/30 08:23:51;;;;;;;3.50;2.55;;;;;;;22.18;51.06;98093.81;5066654;28;20402;-58
2021/06/30 08:26:28;;;;;;;4.60;2.50;;;;;;;22.13;50.93;98094.00;5067156;27;20135;-58
2021/06/30 08:29:04;;;;;;;8.38;3.40;;;;;;;22.02;51.58;98102.94;5067158;27;20131;-59
2021/06/30 08:31:41;;;;;;;6.55;3.40;;;;;;;22.05;51.34;98094.16;5066385;28;20130;-59
2021/06/30 08:34:17;;;;;;;2.60;2.40;;;;;;;22.11;51.27;98100.88;5108129;27;20133;-59
2021/06/30 08:37:00;;;;;;;3.42;2.33;;;;;;;21.95;50.33;98101.63;5065810;28;20141;-58
2021/06/30 08:39:37;;;;;;;3.15;2.45;;;;;;;21.92;51.05;98102.31;5106810;27;20809;-60
2021/06/30 08:42:18;;;;;;;4.15;2.53;;;;;;;21.59;51.83;98102.56;5066430;27;20131;-60
2021/06/30 08:44:55;;;;;;;3.80;2.80;;;;;;;21.50;52.14;98110.78;5066199;27;20399;-59
2021/06/30 08:47:34;;;;;;;3.67;2.63;;;;;;;21.38;52.91;98118.84;5067386;27;20142;-59
2021/06/30 08:50:12;;;;;;;4.00;2.88;;;;;;;21.22;53.47;98107.97;5067516;27;20387;-58
2021/06/30 08:52:51;;;;;;;5.45;2.60;;;;;;;21.21;53.71;98122.56;5107162;27;20396;-58
2021/06/30 08:55:28;;;;;;;4.55;2.50;;;;;;;21.32;54.05;98133.66;5107144;27;20399;-59
2021/06/30 08:58:05;;;;;;;5.18;2.80;;;;;;;21.39;54.07;98130.44;5065516;28;20126;-61
2021/06/30 09:00:42;;;;;;;2.80;2.50;;;;;;;21.50;53.59;98134.22;5066473;27;20600;-60
2021/06/30 09:03:20;;;;;;;6.93;2.70;;;;;;;21.51;53.09;98125.81;5066106;28;20780;-59
2021/06/30 09:08:43;;;;;;;3.28;2.38;;;;;;;21.76;52.90;98131.91;5066068;27;20131;-58
2021/06/30 09:11:22;;;;;;;6.07;3.10;;;;;;;21.69;52.70;98134.41;5065994;28;20390;-58
2021/06/30 09:14:18;;;;;;;3.90;3.20;;;;;;;21.68;52.90;98126.69;5107604;27;20400;-61
2021/06/30 09:17:25;;;;;;;6.45;3.25;;;;;;;21.80;52.72;98120.47;5066563;28;20395;-59
2021/06/30 09:20:06;;;;;;;4.38;2.75;;;;;;;22.05;52.22;98118.44;5109938;27;20808;-58
2021/06/30 09:22:46;;;;;;;4.05;2.60;;;;;;;22.31;51.60;98132.31;5065814;28;20391;-60
2021/06/30 09:25:41;;;;;;;4.30;3.05;;;;;;;22.46;52.06;98122.66;5148841;27;20127;-59
2021/06/30 09:28:22;;;;;;;3.92;3.10;;;;;;;22.56;51.42;98126.75;5067144;27;20379;-59
2021/06/30 09:31:01;;;;;;;5.88;3.00;;;;;;;22.82;51.30;98124.31;5061833;27;20387;-59
2021/06/30 09:33:50;;;;;;;5.35;3.00;;;;;;;23.04;50.58;98117.56;5106859;27;20821;-60
2021/06/30 09:36:31;;;;;;;3.70;2.83;;;;;;;23.17;49.65;98122.84;5067269;27;20390;-61
2021/06/30 09:39:10;;;;;;;6.22;2.85;;;;;;;23.13;49.75;98126.25;5065484;28;20757;-59
2021/06/30 09:41:49;;;;;;;3.97;2.78;;;;;;;23.23;50.20;98121.44;5126576;27;20402;-61
2021/06/30 09:56:33;;;;;;;5.28;3.00;;;;;;;23.41;49.70;98119.91;4728769;27;20068;-60
2021/06/30 09:59:14;;;;;;;6.80;3.10;;;;;;;23.13;50.47;98128.19;5065717;28;20450;-59
2021/06/30 10:01:59;;;;;;;6.05;2.88;;;;;;;22.80;51.61;98128.53;5061398;28;20395;-57
2021/06/30 10:04:40;;;;;;;3.75;2.70;;;;;;;22.61;51.73;98115.69;5065145;28;20427;-60
2021/06/30 10:07:27;;;;;;;5.50;3.15;;;;;;;22.43;51.89;98115.25;5064009;28;20395;-59
2021/06/30 10:10:07;;;;;;;4.00;2.60;;;;;;;22.23;52.53;98122.44;5065114;28;20391;-60
2021/06/30 10:12:44;;;;;;;6.75;2.92;;;;;;;21.92;53.31;98121.22;5085536;27;20393;-59
2021/06/30 10:15:20;;;;;;;7.03;2.35;;;;;;;21.81;53.87;98128.22;5064444;28;20150;-59
2021/06/30 10:17:58;;;;;;;5.63;2.65;;;;;;;21.83;53.82;98133.28;5084487;28;20541;-60
2021/06/30 10:20:35;;;;;;;4.05;2.83;;;;;;;21.93;53.83;98132.78;5066844;27;20878;-59
2021/06/30 10:23:12;;;;;;;4.22;2.70;;;;;;;22.03;53.80;98135.00;5065731;28;20238;-59
2021/06/30 10:25:49;;;;;;;6.05;2.60;;;;;;;22.24;53.29;98132.13;5066414;27;20135;-60
2021/06/30 10:28:27;;;;;;;3.65;2.38;;;;;;;22.44;53.07;98135.72;5086459;28;20140;-60
2021/06/30 10:31:05;;;;;;;9.23;2.90;;;;;;;22.71;53.06;98128.69;5067052;28;20399;-60
2021/06/30 10:33:59;;;;;;;4.55;2.50;;;;;;;22.89;52.16;98135.31;5064755;28;20390;-59
2021/06/30 10:36:55;;;;;;;6.32;2.83;;;;;;;22.99;52.55;98131.31;5063992;28;20927;-61
2021/06/30 10:39:35;;;;;;;4.43;2.97;;;;;;;23.07;51.93;98135.00;5065056;27;20896;-60
2021/06/30 10:42:34;;;;;;;3.50;2.40;;;;;;;23.11;51.81;98133.94;5104947;27;20399;-59
2021/06/30 10:45:14;;;;;;;3.97;2.45;;;;;;;23.10;51.98;98137.00;5064697;27;20720;-59
2021/06/30 10:48:13;;;;;;;5.78;2.65;;;;;;;22.50;52.36;98147.03;5064835;28;20390;-59
2021/06/30 10:50:58;;;;;;;2.95;2.00;;;;;;;22.24;53.01;98161.81;5066088;28;20395;-58
2021/06/30 10:53:36;;;;;;;3.72;2.38;;;;;;;22.19;52.95;98157.44;5104928;27;20391;-58
2021/06/30 10:56:13;;;;;;;3.85;2.40;;;;;;;22.45;52.75;98148.09;5064152;28;20911;-59
2021/06/30 10:59:01;;;;;;;4.95;2.08;;;;;;;22.58;51.84;98160.38;5064907;27;20135;-59
2021/06/30 11:02:11;;;;;;;4.68;2.10;;;;;;;22.52;52.33;98158.28;5063350;28;20390;-59
2021/06/30 11:04:47;;;;;;;3.40;2.30;;;;;;;22.28;52.94;98162.69;5105827;27;20376;-58
2021/06/30 11:07:34;;;;;;;3.13;2.00;;;;;;;22.05;53.46;98165.09;5126136;27;20600;-61
2021/06/30 11:10:20;;;;;;;3.92;1.80;;;;;;;21.68;54.89;98164.44;5104917;27;20379;-59
2021/06/30 11:13:00;;;;;;;2.55;1.80;;;;;;;21.38;55.87;98161.97;5124666;27;20387;-59
2021/06/30 11:15:35;;;;;;;6.43;2.17;;;;;;;21.33;56.16;98181.06;5087581;27;1415159;-59
2021/06/30 11:18:11;;;;;;;6.60;2.00;;;;;;;21.28;56.51;98170.50;5063268;28;20169;-59
2021/06/30 11:21:03;;;;;;;2.05;1.88;;;;;;;21.18;56.54;98171.75;5107071;27;20773;-59
2021/06/30 11:23:42;;;;;;;3.55;1.60;;;;;;;20.94;57.31;98172.53;5065993;28;20391;-58
2021/06/30 11:26:34;;;;;;;2.08;1.83;;;;;;;20.93;57.33;98176.31;5065981;28;20799;-59
2021/06/30 11:29:48;;;;;;;5.20;1.75;;;;;;;21.42;56.18;98181.78;5067243;28;20399;-59
2021/06/30 11:32:31;;;;;;;4.75;1.52;;;;;;;21.85;55.61;98177.63;5065358;28;20422;-59
2021/06/30 11:35:23;;;;;;;1.90;1.70;;;;;;;21.94;54.79;98177.50;5067153;27;20386;-59
2021/06/30 11:38:07;;;;;;;3.63;1.90;;;;;;;21.89;55.42;98175.84;5064199;28;20414;-60
2021/06/30 11:40:58;;;;;;;2.75;1.85;;;;;;;21.94;55.48;98182.91;5063802;28;20398;-59
2021/06/30 11:43:41;;;;;;;4.13;1.70;;;;;;;22.09;55.03;98178.69;5065723;27;20395;-59
2021/06/30 11:46:21;;;;;;;2.30;1.90;;;;;;;22.14;55.13;98183.84;5064625;28;20390;-59
2021/06/30 11:48:59;;;;;;;2.50;1.73;;;;;;;22.15;54.81;98185.44;5087576;28;20409;-59
2021/06/30 11:51:37;;;;;;;1.65;1.55;;;;;;;21.91;55.29;98180.88;5067649;27;20134;-59
2021/06/30 11:54:15;;;;;;;3.83;1.80;;;;;;;21.83;55.66;98192.63;5064572;27;20406;-60
2021/06/30 11:56:53;;;;;;;2.10;1.90;;;;;;;21.53;56.29;98182.88;5066662;28;20422;-60
2021/06/30 11:59:30;;;;;;;4.40;1.90;;;;;;;21.23;57.46;98168.81;5067533;28;20402;-59
2021/06/30 12:02:07;;;;;;;3.50;1.88;;;;;;;21.01;58.16;98175.44;5106248;27;20166;-59
2021/06/30 12:04:44;;;;;;;2.33;2.10;;;;;;;20.75;59.13;98173.03;5066835;28;20134;-59
2021/06/30 12:07:20;;;;;;;3.10;2.10;;;;;;;20.56;59.69;98176.28;5066883;28;20599;-59
2021/06/30 12:10:01;;;;;;;3.95;2.53;;;;;;;20.64;59.55;98178.06;5085081;27;20129;-56
2021/06/30 12:12:38;;;;;;;2.58;1.73;;;;;;;20.62;59.24;98163.38;5065693;28;20737;-57
2021/06/30 12:15:17;;;;;;;1.67;1.58;;;;;;;20.72;59.16;98167.53;5065700;28;20138;-58
2021/06/30 12:17:58;;;;;;;3.38;1.80;;;;;;;20.83;58.92;98172.16;5085807;28;20965;-60
2021/06/30 12:20:36;;;;;;;5.15;1.90;;;;;;;20.92;58.23;98176.69;5106639;27;20407;-58
2021/06/30 12:23:17;;;;;;;2.17;1.98;;;;;;;20.81;59.12;98174.41;5065682;28;20134;-59
2021/06/30 12:26:04;;;;;;;4.10;2.00;;;;;;;20.71;59.55;98176.75;5106395;27;20380;-59
2021/06/30 12:28:46;;;;;;;3.55;1.90;;;;;;;20.67;59.72;98182.00;5065640;28;20756;-59
2021/06/30 12:31:23;;;;;;;2.47;2.28;;;;;;;20.60;60.08;98182.56;5066175;28;20375;-59
2021/06/30 12:34:00;;;;;;;4.13;1.95;;;;;;;20.51;60.47;98171.06;5110122;27;20518;-58
2021/06/30 12:36:36;;;;;;;3.15;2.53;;;;;;;20.40;60.56;98162.59;5065500;28;20142;-58
2021/06/30 12:39:17;;;;;;;3.38;2.20;;;;;;;20.28;61.19;98169.84;5066441;28;20595;-58
2021/06/30 12:42:00;;;;;;;4.68;2.30;;;;;;;20.11;61.57;98170.78;5066704;27;20414;-59